createdAt,value
2019-04-01T00:00:41.341Z,20.96
2019-04-01T00:01:41.354Z,21.05
2019-04-01T00:02:41.308Z,21.01
2019-04-01T00:03:41.292Z,21.01
2019-04-01T00:04:41.303Z,20.98
2019-04-01T00:05:41.185Z,20.99
2019-04-01T00:06:41.271Z,21.01
2019-04-01T00:07:41.207Z,20.96
2019-04-01T00:08:41.223Z,20.99
2019-04-01T00:09:41.149Z,20.96
2019-04-01T00:10:41.232Z,20.96
2019-04-01T00:11:41.207Z,21.01
2019-04-01T00:12:41.124Z,20.93
2019-04-01T00:13:41.214Z,20.98
2019-04-01T00:14:41.211Z,20.93
2019-04-01T00:15:41.154Z,21.02
2019-04-01T00:16:41.098Z,20.99
2019-04-01T00:17:41.160Z,20.98
2019-04-01T00:18:41.148Z,20.98
2019-04-01T00:19:41.105Z,20.96
2019-04-01T00:20:41.140Z,20.95
2019-04-01T00:21:44.371Z,20.93
2019-04-01T00:22:41.099Z,20.95
2019-04-01T00:23:41.062Z,20.95
2019-04-01T00:24:41.060Z,20.99
2019-04-01T00:25:41.054Z,20.91
2019-04-01T00:26:41.058Z,20.99
2019-04-01T00:27:41.061Z,20.90
2019-04-01T00:28:41.065Z,20.90
2019-04-01T00:29:41.014Z,20.91
2019-04-01T00:30:40.994Z,20.93
2019-04-01T00:31:40.985Z,20.96
2019-04-01T00:32:40.965Z,20.84
2019-04-01T00:33:41.006Z,20.89
2019-04-01T00:34:40.988Z,20.93
2019-04-01T00:35:40.946Z,20.89
2019-04-01T00:36:40.938Z,20.81
2019-04-01T00:37:40.924Z,20.87
2019-04-01T00:38:40.907Z,20.91
2019-04-01T00:39:40.894Z,20.86
2019-04-01T00:40:40.918Z,20.87
2019-04-01T00:41:40.855Z,20.87
2019-04-01T00:42:40.861Z,20.91
2019-04-01T00:43:40.862Z,20.87
2019-04-01T00:44:40.852Z,20.91
2019-04-01T00:45:40.825Z,20.89
2019-04-01T00:46:40.808Z,20.86
2019-04-01T00:47:40.852Z,20.95
2019-04-01T00:48:40.715Z,20.83
2019-04-01T00:49:40.771Z,20.84
2019-04-01T00:50:40.770Z,20.90
2019-04-01T00:51:40.767Z,20.91
2019-04-01T00:52:40.754Z,20.84
2019-04-01T00:53:40.793Z,20.89
2019-04-01T00:54:40.725Z,20.89
2019-04-01T00:55:40.709Z,20.81
2019-04-01T00:56:40.697Z,20.86
2019-04-01T00:57:40.727Z,20.87
2019-04-01T00:58:40.685Z,20.86
2019-04-01T00:59:40.689Z,20.81
2019-04-01T01:00:40.734Z,20.81
2019-04-01T01:01:40.650Z,20.87
2019-04-01T01:02:40.654Z,20.84
2019-04-01T01:03:40.645Z,20.80
2019-04-01T01:04:40.630Z,20.89
2019-04-01T01:05:40.618Z,20.80
2019-04-01T01:06:40.635Z,20.77
2019-04-01T01:07:40.582Z,20.80
2019-04-01T01:08:40.593Z,20.83
2019-04-01T01:09:40.566Z,20.79
2019-04-01T01:10:40.562Z,20.72
2019-04-01T01:11:40.569Z,20.76
2019-04-01T01:12:40.566Z,20.77
2019-04-01T01:13:40.594Z,20.79
2019-04-01T01:14:40.493Z,20.79
2019-04-01T01:15:40.502Z,20.76
2019-04-01T01:16:40.474Z,20.74
2019-04-01T01:17:40.398Z,20.74
2019-04-01T01:18:40.394Z,20.84
2019-04-01T01:19:40.507Z,20.83
2019-04-01T01:20:40.507Z,20.86
2019-04-01T01:21:40.448Z,20.83
2019-04-01T01:22:40.345Z,20.83
2019-04-01T01:23:40.423Z,20.76
2019-04-01T01:24:40.344Z,20.76
2019-04-01T01:25:40.369Z,20.77
2019-04-01T01:26:40.437Z,20.76
2019-04-01T01:27:40.352Z,20.80
2019-04-01T01:28:40.339Z,20.77
2019-04-01T01:29:40.351Z,20.72
2019-04-01T01:30:40.318Z,20.69
2019-04-01T01:31:40.321Z,20.72
2019-04-01T01:32:40.351Z,20.72
2019-04-01T01:33:40.301Z,20.74
2019-04-01T01:34:40.306Z,20.74
2019-04-01T01:35:40.287Z,20.80
2019-04-01T01:36:40.280Z,20.72
2019-04-01T01:37:40.281Z,20.77
2019-04-01T01:38:40.310Z,20.72
2019-04-01T01:39:40.253Z,20.69
2019-04-01T01:40:40.265Z,20.74
2019-04-01T01:41:40.241Z,20.81
2019-04-01T01:42:40.233Z,20.66
2019-04-01T01:43:40.187Z,20.72
2019-04-01T01:44:40.182Z,20.74
2019-04-01T01:45:40.198Z,20.77
2019-04-01T01:46:40.159Z,20.74
2019-04-01T01:47:40.128Z,20.77
2019-04-01T01:48:40.132Z,20.71
2019-04-01T01:49:40.117Z,20.79
2019-04-01T01:50:40.109Z,20.76
2019-04-01T01:51:40.151Z,20.72
2019-04-01T01:52:40.124Z,20.72
2019-04-01T01:53:41.766Z,20.68
2019-04-01T01:54:40.064Z,20.76
2019-04-01T01:55:40.051Z,20.68
2019-04-01T01:56:40.032Z,20.74
2019-04-01T01:57:40.037Z,20.72
2019-04-01T01:58:40.081Z,20.72
2019-04-01T01:59:40.018Z,20.71
2019-04-01T02:00:40.007Z,20.74
2019-04-01T02:01:39.990Z,20.66
2019-04-01T02:02:39.973Z,20.66
2019-04-01T02:03:39.963Z,20.69
2019-04-01T02:04:39.981Z,20.68
2019-04-01T02:05:39.948Z,20.71
2019-04-01T02:06:39.936Z,20.68
2019-04-01T02:07:39.912Z,20.68
2019-04-01T02:08:39.921Z,20.65
2019-04-01T02:09:39.961Z,20.68
2019-04-01T02:10:39.919Z,20.71
2019-04-01T02:11:39.901Z,20.66
2019-04-01T02:12:39.884Z,20.71
2019-04-01T02:13:39.874Z,20.66
2019-04-01T02:14:39.870Z,20.69
2019-04-01T02:15:40.138Z,20.61
2019-04-01T02:16:39.849Z,20.68
2019-04-01T02:17:39.814Z,20.68
2019-04-01T02:18:39.827Z,20.69
2019-04-01T02:19:39.792Z,20.61
2019-04-01T02:20:39.768Z,20.66
2019-04-01T02:21:39.799Z,20.64
2019-04-01T02:22:39.754Z,20.72
2019-04-01T02:23:39.745Z,20.68
2019-04-01T02:24:39.735Z,20.66
2019-04-01T02:25:39.723Z,20.65
2019-04-01T02:26:39.717Z,20.71
2019-04-01T02:27:39.742Z,20.62
2019-04-01T02:28:39.681Z,20.68
2019-04-01T02:29:39.672Z,20.66
2019-04-01T02:30:39.662Z,20.62
2019-04-01T02:31:39.693Z,20.59
2019-04-01T02:32:39.630Z,20.68
2019-04-01T02:33:39.661Z,20.59
2019-04-01T02:34:39.623Z,20.65
2019-04-01T02:35:39.605Z,20.64
2019-04-01T02:36:39.598Z,20.64
2019-04-01T02:37:39.585Z,20.65
2019-04-01T02:38:39.611Z,20.66
2019-04-01T02:39:39.609Z,20.59
2019-04-01T02:40:39.573Z,20.65
2019-04-01T02:41:39.562Z,20.59
2019-04-01T02:42:39.534Z,20.59
2019-04-01T02:43:39.525Z,20.64
2019-04-01T02:44:39.515Z,20.66
2019-04-01T02:45:39.543Z,20.62
2019-04-01T02:46:39.491Z,20.61
2019-04-01T02:47:39.466Z,20.61
2019-04-01T02:48:39.471Z,20.64
2019-04-01T02:49:39.449Z,20.66
2019-04-01T02:50:39.440Z,20.71
2019-04-01T02:51:39.476Z,20.61
2019-04-01T02:52:39.421Z,20.66
2019-04-01T02:53:39.421Z,20.65
2019-04-01T02:54:39.401Z,20.53
2019-04-01T02:55:39.389Z,20.72
2019-04-01T02:56:39.361Z,20.65
2019-04-01T02:57:39.448Z,20.66
2019-04-01T02:58:39.361Z,20.64
2019-04-01T02:59:39.353Z,20.71
2019-04-01T03:00:39.340Z,20.58
2019-04-01T03:01:39.327Z,20.68
2019-04-01T03:02:39.236Z,20.69
2019-04-01T03:03:39.340Z,20.58
2019-04-01T03:04:39.306Z,20.71
2019-04-01T03:05:39.283Z,20.56
2019-04-01T03:06:39.199Z,20.61
2019-04-01T03:07:39.254Z,20.69
2019-04-01T03:08:39.282Z,20.71
2019-04-01T03:09:39.237Z,20.65
2019-04-01T03:10:39.225Z,20.58
2019-04-01T03:11:39.227Z,20.69
2019-04-01T03:12:39.117Z,20.51
2019-04-01T03:13:39.191Z,20.54
2019-04-01T03:14:39.236Z,20.61
2019-04-01T03:15:39.151Z,20.64
2019-04-01T03:16:39.085Z,20.59
2019-04-01T03:17:39.147Z,20.61
2019-04-01T03:18:39.139Z,20.64
2019-04-01T03:19:39.125Z,20.58
2019-04-01T03:20:39.063Z,20.54
2019-04-01T03:21:39.118Z,20.50
2019-04-01T03:22:39.117Z,20.51
2019-04-01T03:23:39.134Z,20.59
2019-04-01T03:24:39.071Z,20.64
2019-04-01T03:25:39.055Z,20.59
2019-04-01T03:26:39.047Z,20.64
2019-04-01T03:27:38.953Z,20.64
2019-04-01T03:28:39.023Z,20.61
2019-04-01T03:29:39.046Z,20.62
2019-04-01T03:30:39.009Z,20.51
2019-04-01T03:31:38.911Z,20.50
2019-04-01T03:32:44.790Z,20.59
2019-04-01T03:33:39.976Z,20.56
2019-04-01T03:34:38.954Z,20.59
2019-04-01T03:35:38.995Z,20.53
2019-04-01T03:36:38.979Z,20.47
2019-04-01T03:37:38.911Z,20.59
2019-04-01T03:38:38.914Z,20.54
2019-04-01T03:39:38.910Z,20.56
2019-04-01T03:40:38.964Z,20.51
2019-04-01T03:41:39.496Z,20.53
2019-04-01T03:42:38.875Z,20.53
2019-04-01T03:43:38.858Z,20.53
2019-04-01T03:44:38.851Z,20.56
2019-04-01T03:45:38.834Z,20.59
2019-04-01T03:46:38.840Z,20.51
2019-04-01T03:47:38.856Z,20.59
2019-04-01T03:48:38.731Z,20.51
2019-04-01T03:49:38.800Z,20.50
2019-04-01T03:50:38.783Z,20.50
2019-04-01T03:51:38.761Z,20.50
2019-04-01T03:52:38.809Z,20.54
2019-04-01T03:53:38.785Z,20.54
2019-04-01T03:54:38.749Z,20.53
2019-04-01T03:55:38.727Z,20.54
2019-04-01T03:56:38.716Z,20.49
2019-04-01T03:57:38.713Z,20.49
2019-04-01T03:58:38.689Z,20.53
2019-04-01T03:59:38.707Z,20.53
2019-04-01T04:00:38.713Z,20.56
2019-04-01T04:01:38.680Z,20.51
2019-04-01T04:02:38.676Z,20.56
2019-04-01T04:03:38.644Z,20.54
2019-04-01T04:04:38.646Z,20.51
2019-04-01T04:05:38.646Z,20.54
2019-04-01T04:06:38.652Z,20.53
2019-04-01T04:07:38.593Z,20.58
2019-04-01T04:08:38.585Z,20.56
2019-04-01T04:09:38.571Z,20.49
2019-04-01T04:10:38.556Z,20.50
2019-04-01T04:11:38.564Z,20.59
2019-04-01T04:12:38.602Z,20.53
2019-04-01T04:13:38.551Z,20.49
2019-04-01T04:14:38.539Z,20.53
2019-04-01T04:15:38.531Z,20.53
2019-04-01T04:16:38.500Z,20.47
2019-04-01T04:17:38.394Z,20.47
2019-04-01T04:18:38.553Z,20.51
2019-04-01T04:19:38.468Z,20.49
2019-04-01T04:20:38.444Z,20.49
2019-04-01T04:21:38.366Z,20.50
2019-04-01T04:22:38.423Z,20.49
2019-04-01T04:23:38.431Z,20.50
2019-04-01T04:24:38.453Z,20.54
2019-04-01T04:25:38.314Z,20.49
2019-04-01T04:26:38.296Z,20.47
2019-04-01T04:27:38.305Z,20.47
2019-04-01T04:28:38.384Z,20.49
2019-04-01T04:29:38.353Z,20.42
2019-04-01T04:30:38.358Z,20.46
2019-04-01T04:31:38.321Z,20.47
2019-04-01T04:32:38.405Z,20.50
2019-04-01T04:33:38.366Z,20.47
2019-04-01T04:34:38.308Z,20.47
2019-04-01T04:35:38.295Z,20.49
2019-04-01T04:36:38.314Z,20.50
2019-04-01T04:37:38.288Z,20.39
2019-04-01T04:38:38.313Z,20.49
2019-04-01T04:39:38.253Z,20.49
2019-04-01T04:40:40.860Z,20.51
2019-04-01T04:41:38.245Z,20.46
2019-04-01T04:42:38.227Z,20.50
2019-04-01T04:43:38.296Z,20.49
2019-04-01T04:44:38.233Z,20.43
2019-04-01T04:45:38.197Z,20.46
2019-04-01T04:46:38.144Z,20.42
2019-04-01T04:47:38.189Z,20.51
2019-04-01T04:48:38.049Z,20.42
2019-04-01T04:49:38.723Z,20.47
2019-04-01T04:50:38.134Z,20.46
2019-04-01T04:51:38.123Z,20.46
2019-04-01T04:52:38.133Z,20.43
2019-04-01T04:53:38.010Z,20.46
2019-04-01T04:54:38.073Z,20.43
2019-04-01T04:55:38.119Z,20.47
2019-04-01T04:56:38.078Z,20.47
2019-04-01T04:57:38.037Z,20.50
2019-04-01T04:58:38.035Z,20.41
2019-04-01T04:59:38.012Z,20.49
2019-04-01T05:00:37.925Z,20.51
2019-04-01T05:01:38.071Z,20.46
2019-04-01T05:02:37.989Z,20.46
2019-04-01T05:03:38.005Z,20.47
2019-04-01T05:04:37.979Z,20.42
2019-04-01T05:05:37.979Z,20.43
2019-04-01T05:06:37.988Z,20.43
2019-04-01T05:07:37.926Z,20.50
2019-04-01T05:08:37.933Z,20.49
2019-04-01T05:09:37.927Z,20.47
2019-04-01T05:10:37.917Z,20.46
2019-04-01T05:11:37.882Z,20.53
2019-04-01T05:12:37.925Z,20.50
2019-04-01T05:13:38.134Z,20.42
2019-04-01T05:14:37.846Z,20.49
2019-04-01T05:15:37.865Z,20.47
2019-04-01T05:16:37.838Z,20.42
2019-04-01T05:17:37.829Z,20.51
2019-04-01T05:18:37.857Z,20.47
2019-04-01T05:19:37.809Z,20.46
2019-04-01T05:20:37.792Z,20.51
2019-04-01T05:21:37.779Z,20.47
2019-04-01T05:22:37.780Z,20.50
2019-04-01T05:23:37.762Z,20.50
2019-04-01T05:24:37.766Z,20.53
2019-04-01T05:25:37.720Z,20.47
2019-04-01T05:26:37.724Z,20.51
2019-04-01T05:27:37.729Z,20.47
2019-04-01T05:28:37.709Z,20.51
2019-04-01T05:29:37.601Z,20.47
2019-04-01T05:30:37.757Z,20.58
2019-04-01T05:31:37.589Z,20.53
2019-04-01T05:32:37.569Z,20.46
2019-04-01T05:33:37.658Z,20.50
2019-04-01T05:34:37.547Z,20.46
2019-04-01T05:35:37.540Z,20.50
2019-04-01T05:36:37.570Z,20.46
2019-04-01T05:37:37.527Z,20.43
2019-04-01T05:38:37.509Z,20.47
2019-04-01T05:39:37.496Z,20.46
2019-04-01T05:40:37.572Z,20.47
2019-04-01T05:41:37.466Z,20.54
2019-04-01T05:42:37.567Z,20.58
2019-04-01T05:43:37.552Z,20.51
2019-04-01T05:44:37.448Z,20.53
2019-04-01T05:45:37.418Z,20.53
2019-04-01T05:46:37.402Z,20.56
2019-04-01T05:47:37.500Z,20.50
2019-04-01T05:48:37.522Z,20.54
2019-04-01T05:49:37.461Z,20.50
2019-04-01T05:50:37.373Z,20.53
2019-04-01T05:51:37.482Z,20.56
2019-04-01T05:52:37.344Z,20.54
2019-04-01T05:53:37.430Z,20.54
2019-04-01T05:54:37.387Z,20.53
2019-04-01T05:55:37.395Z,20.51
2019-04-01T05:56:37.306Z,20.54
2019-04-01T05:57:37.407Z,20.51
2019-04-01T05:58:37.277Z,20.50
2019-04-01T05:59:37.269Z,20.53
2019-04-01T06:00:37.296Z,20.54
2019-04-01T06:01:37.251Z,20.54
2019-04-01T06:02:37.256Z,20.47
2019-04-01T06:03:37.326Z,20.56
2019-04-01T06:04:37.291Z,20.59
2019-04-01T06:05:37.200Z,20.50
2019-04-01T06:06:37.264Z,20.51
2019-04-01T06:07:37.185Z,20.51
2019-04-01T06:08:37.162Z,20.51
2019-04-01T06:09:37.165Z,20.49
2019-04-01T06:10:37.145Z,20.54
2019-04-01T06:11:37.230Z,20.47
2019-04-01T06:12:37.155Z,20.58
2019-04-01T06:13:37.192Z,20.65
2019-04-01T06:14:37.196Z,20.64
2019-04-01T06:15:38.189Z,20.51
2019-04-01T06:16:37.085Z,20.66
2019-04-01T06:17:37.069Z,20.72
2019-04-01T06:18:37.126Z,20.71
2019-04-01T06:19:37.039Z,20.69
2019-04-01T06:20:37.042Z,20.71
2019-04-01T06:21:37.107Z,20.65
2019-04-01T06:22:37.021Z,20.62
2019-04-01T06:23:36.993Z,20.61
2019-04-01T06:24:37.037Z,20.62
2019-04-01T06:25:36.988Z,20.68
2019-04-01T06:26:36.988Z,20.64
2019-04-01T06:27:36.939Z,20.64
2019-04-01T06:28:36.944Z,20.65
2019-04-01T06:29:36.948Z,20.68
2019-04-01T06:30:36.975Z,20.58
2019-04-01T06:31:36.918Z,20.59
2019-04-01T06:32:36.908Z,20.58
2019-04-01T06:33:37.200Z,20.68
2019-04-01T06:34:36.883Z,20.68
2019-04-01T06:35:36.891Z,20.66
2019-04-01T06:36:38.819Z,20.71
2019-04-01T06:37:36.851Z,20.74
2019-04-01T06:38:36.831Z,20.76
2019-04-01T06:39:36.919Z,20.72
2019-04-01T06:40:36.830Z,20.72
2019-04-01T06:41:36.796Z,20.76
2019-04-01T06:42:36.920Z,20.68
2019-04-01T06:43:36.781Z,20.74
2019-04-01T06:44:36.762Z,20.72
2019-04-01T06:45:36.755Z,20.72
2019-04-01T06:46:36.746Z,20.74
2019-04-01T06:47:36.733Z,20.80
2019-04-01T06:48:36.761Z,20.87
2019-04-01T06:49:36.918Z,20.87
2019-04-01T06:50:36.694Z,20.84
2019-04-01T06:51:36.684Z,20.84
2019-04-01T06:52:36.673Z,20.87
2019-04-01T06:53:36.696Z,20.87
2019-04-01T06:54:36.676Z,20.90
2019-04-01T06:55:36.716Z,20.90
2019-04-01T06:56:36.740Z,20.95
2019-04-01T06:57:36.633Z,20.99
2019-04-01T06:58:36.709Z,20.98
2019-04-01T06:59:36.606Z,21.05
2019-04-01T07:00:36.706Z,21.04
2019-04-01T07:01:36.861Z,21.05
2019-04-01T07:02:36.559Z,21.09
2019-04-01T07:03:36.658Z,21.09
2019-04-01T07:04:36.622Z,21.14
2019-04-01T07:05:36.657Z,21.05
2019-04-01T07:06:36.631Z,21.20
2019-04-01T07:07:36.665Z,21.24
2019-04-01T07:08:36.614Z,21.20
2019-04-01T07:09:36.489Z,21.24
2019-04-01T07:10:36.477Z,21.30
2019-04-01T07:11:36.630Z,21.21
2019-04-01T07:12:36.563Z,21.26
2019-04-01T07:13:39.799Z,21.26
2019-04-01T07:14:36.537Z,21.23
2019-04-01T07:15:36.503Z,21.34
2019-04-01T07:16:39.843Z,21.30
2019-04-01T07:17:36.484Z,21.34
2019-04-01T07:18:36.388Z,21.29
2019-04-01T07:19:36.519Z,21.36
2019-04-01T07:20:36.360Z,21.41
2019-04-01T07:21:36.458Z,21.42
2019-04-01T07:22:36.357Z,21.42
2019-04-01T07:23:36.359Z,21.34
2019-04-01T07:24:36.326Z,21.45
2019-04-01T07:25:36.332Z,21.50
2019-04-01T07:26:36.438Z,21.48
2019-04-01T07:27:36.431Z,21.50
2019-04-01T07:28:36.293Z,21.46
2019-04-01T07:29:36.281Z,21.57
2019-04-01T07:30:36.273Z,21.54
2019-04-01T07:31:36.268Z,21.50
2019-04-01T07:32:36.231Z,21.57
2019-04-01T07:33:36.261Z,21.57
2019-04-01T07:34:36.275Z,21.57
2019-04-01T07:35:36.308Z,21.60
2019-04-01T07:36:36.451Z,21.57
2019-04-01T07:37:36.186Z,21.57
2019-04-01T07:38:36.276Z,21.63
2019-04-01T07:39:36.156Z,21.60
2019-04-01T07:40:36.282Z,21.64
2019-04-01T07:41:36.148Z,21.74
2019-04-01T07:42:36.121Z,21.63
2019-04-01T07:43:36.216Z,21.71
2019-04-01T07:44:36.114Z,21.72
2019-04-01T07:45:36.095Z,21.71
2019-04-01T07:46:36.126Z,21.69
2019-04-01T07:47:36.116Z,21.79
2019-04-01T07:48:36.167Z,21.74
2019-04-01T07:49:36.141Z,21.78
2019-04-01T07:50:36.031Z,21.75
2019-04-01T07:51:38.527Z,21.76
2019-04-01T07:52:36.153Z,21.76
2019-04-01T07:53:36.002Z,21.78
2019-04-01T07:54:35.991Z,21.81
2019-04-01T07:55:36.094Z,21.79
2019-04-01T07:56:35.974Z,21.90
2019-04-01T07:57:36.044Z,21.88
2019-04-01T07:58:36.093Z,21.90
2019-04-01T07:59:36.035Z,21.88
2019-04-01T08:00:36.016Z,21.85
2019-04-01T08:01:36.051Z,21.79
2019-04-01T08:02:36.005Z,21.82
2019-04-01T08:03:35.971Z,21.88
2019-04-01T08:04:36.027Z,21.85
2019-04-01T08:05:35.970Z,21.85
2019-04-01T08:06:35.942Z,21.92
2019-04-01T08:07:35.957Z,21.92
2019-04-01T08:08:35.932Z,21.98
2019-04-01T08:09:35.937Z,21.95
2019-04-01T08:10:35.991Z,21.97
2019-04-01T08:11:35.842Z,21.98
2019-04-01T08:12:35.942Z,21.95
2019-04-01T08:13:35.867Z,21.95
2019-04-01T08:14:35.915Z,22.02
2019-04-01T08:15:35.867Z,22.02
2019-04-01T08:16:35.851Z,21.98
2019-04-01T08:17:35.879Z,21.97
2019-04-01T08:18:35.866Z,22.01
2019-04-01T08:19:35.826Z,22.07
2019-04-01T08:20:35.810Z,22.06
2019-04-01T08:21:35.782Z,22.04
2019-04-01T08:22:35.836Z,22.13
2019-04-01T08:23:35.806Z,22.12
2019-04-01T08:24:35.770Z,22.13
2019-04-01T08:25:35.772Z,22.12
2019-04-01T08:26:35.756Z,22.06
2019-04-01T08:27:35.719Z,22.12
2019-04-01T08:28:36.341Z,22.13
2019-04-01T08:29:35.694Z,22.14
2019-04-01T08:30:35.718Z,22.10
2019-04-01T08:31:35.708Z,22.13
2019-04-01T08:32:35.747Z,22.12
2019-04-01T08:33:35.646Z,22.23
2019-04-01T08:34:36.205Z,22.12
2019-04-01T08:35:35.645Z,22.23
2019-04-01T08:36:35.655Z,22.19
2019-04-01T08:37:35.623Z,22.22
2019-04-01T08:38:35.650Z,22.20
2019-04-01T08:39:35.604Z,22.22
2019-04-01T08:40:35.611Z,22.28
2019-04-01T08:41:35.571Z,22.28
2019-04-01T08:42:35.623Z,22.20
2019-04-01T08:43:35.557Z,22.35
2019-04-01T08:44:35.546Z,22.23
2019-04-01T08:45:35.516Z,22.32
2019-04-01T08:46:35.541Z,22.34
2019-04-01T08:47:35.504Z,22.37
2019-04-01T08:48:35.809Z,22.39
2019-04-01T08:49:35.508Z,22.39
2019-04-01T08:50:35.494Z,22.38
2019-04-01T08:51:35.468Z,22.38
2019-04-01T08:52:36.001Z,22.41
2019-04-01T08:53:35.469Z,22.34
2019-04-01T08:54:35.486Z,22.44
2019-04-01T08:55:35.428Z,22.34
2019-04-01T08:56:38.070Z,22.35
2019-04-01T08:57:35.397Z,22.41
2019-04-01T08:58:35.389Z,22.41
2019-04-01T08:59:35.382Z,22.34
2019-04-01T09:00:35.411Z,22.38
2019-04-01T09:01:35.733Z,22.38
2019-04-01T09:02:35.347Z,22.44
2019-04-01T09:03:35.364Z,22.44
2019-04-01T09:04:35.331Z,22.44
2019-04-01T09:05:35.348Z,22.37
2019-04-01T09:06:35.302Z,22.38
2019-04-01T09:07:35.295Z,22.54
2019-04-01T09:08:35.264Z,22.46
2019-04-01T09:09:35.261Z,22.53
2019-04-01T09:10:35.259Z,22.53
2019-04-01T09:11:38.178Z,22.52
2019-04-01T09:12:35.229Z,22.52
2019-04-01T09:13:35.224Z,22.46
2019-04-01T09:14:35.228Z,22.50
2019-04-01T09:15:35.206Z,22.57
2019-04-01T09:16:35.232Z,22.53
2019-04-01T09:17:35.200Z,22.59
2019-04-01T09:18:35.199Z,22.60
2019-04-01T09:19:35.151Z,22.60
2019-04-01T09:20:35.142Z,22.65
2019-04-01T09:21:35.160Z,22.67
2019-04-01T09:22:35.118Z,22.62
2019-04-01T09:23:35.195Z,22.67
2019-04-01T09:24:35.081Z,22.68
2019-04-01T09:25:35.094Z,22.62
2019-04-01T09:26:35.092Z,22.71
2019-04-01T09:27:35.084Z,22.69
2019-04-01T09:28:35.055Z,22.77
2019-04-01T09:29:35.102Z,22.65
2019-04-01T09:30:35.040Z,22.72
2019-04-01T09:31:35.015Z,22.72
2019-04-01T09:32:35.009Z,22.75
2019-04-01T09:33:35.005Z,22.77
2019-04-01T09:34:34.994Z,22.80
2019-04-01T09:35:35.018Z,22.78
2019-04-01T09:36:34.975Z,22.71
2019-04-01T09:37:35.012Z,22.82
2019-04-01T09:38:34.930Z,22.82
2019-04-01T09:39:34.934Z,22.78
2019-04-01T09:40:34.932Z,22.83
2019-04-01T09:41:35.002Z,22.84
2019-04-01T09:42:34.932Z,22.83
2019-04-01T09:43:34.875Z,22.84
2019-04-01T09:44:37.029Z,22.82
2019-04-01T09:45:34.960Z,22.83
2019-04-01T09:46:34.881Z,22.97
2019-04-01T09:47:34.898Z,22.90
2019-04-01T09:48:34.836Z,22.84
2019-04-01T09:49:34.825Z,22.94
2019-04-01T09:50:34.798Z,22.92
2019-04-01T09:51:48.024Z,22.96
2019-04-01T09:52:35.842Z,22.97
2019-04-01T09:53:34.764Z,22.93
2019-04-01T09:54:34.799Z,23.05
2019-04-01T09:55:34.770Z,23.04
2019-04-01T09:56:34.744Z,23.05
2019-04-01T09:57:34.743Z,22.99
2019-04-01T09:58:34.778Z,23.04
2019-04-01T09:59:34.721Z,23.04
2019-04-01T10:00:34.716Z,23.05
2019-04-01T10:01:34.701Z,22.99
2019-04-01T10:02:34.692Z,23.14
2019-04-01T10:03:34.677Z,23.15
2019-04-01T10:04:34.707Z,23.12
2019-04-01T10:05:34.675Z,23.22
2019-04-01T10:06:34.648Z,23.19
2019-04-01T10:07:34.802Z,23.20
2019-04-01T10:08:41.990Z,23.26
2019-04-01T10:09:35.645Z,23.29
2019-04-01T10:10:34.623Z,23.31
2019-04-01T10:11:34.583Z,23.34
2019-04-01T10:12:34.575Z,23.42
2019-04-01T10:13:34.562Z,23.46
2019-04-01T10:14:34.553Z,23.52
2019-04-01T10:15:34.617Z,23.49
2019-04-01T10:16:34.566Z,23.58
2019-04-01T10:17:34.563Z,23.62
2019-04-01T10:18:34.491Z,23.65
2019-04-01T10:19:34.504Z,23.62
2019-04-01T10:20:34.481Z,23.62
2019-04-01T10:21:34.483Z,23.70
2019-04-01T10:22:34.501Z,23.68
2019-04-01T10:23:34.489Z,23.76
2019-04-01T10:24:34.469Z,23.79
2019-04-01T10:25:34.474Z,23.85
2019-04-01T10:26:34.419Z,23.89
2019-04-01T10:27:34.440Z,23.86
2019-04-01T10:28:35.214Z,23.94
2019-04-01T10:29:34.438Z,23.85
2019-04-01T10:30:34.358Z,24.04
2019-04-01T10:31:34.354Z,24.05
2019-04-01T10:32:34.370Z,24.05
2019-04-01T10:33:34.337Z,24.08
2019-04-01T10:34:34.403Z,24.02
2019-04-01T10:35:34.401Z,24.08
2019-04-01T10:36:34.315Z,24.04
2019-04-01T10:37:34.303Z,24.12
2019-04-01T10:38:34.278Z,24.10
2019-04-01T10:39:34.262Z,24.12
2019-04-01T10:40:34.242Z,24.10
2019-04-01T10:41:34.285Z,24.16
2019-04-01T10:42:34.225Z,24.14
2019-04-01T10:43:34.213Z,24.10
2019-04-01T10:44:34.248Z,24.08
2019-04-01T10:45:34.237Z,24.08
2019-04-01T10:46:34.270Z,24.08
2019-04-01T10:47:34.288Z,24.05
2019-04-01T10:48:34.217Z,24.08
2019-04-01T10:49:34.150Z,24.01
2019-04-01T10:50:34.177Z,24.01
2019-04-01T10:51:34.181Z,23.98
2019-04-01T10:52:34.137Z,23.97
2019-04-01T10:53:34.246Z,24.08
2019-04-01T10:54:34.168Z,23.98
2019-04-01T10:55:34.194Z,23.97
2019-04-01T10:56:35.862Z,23.97
2019-04-01T10:57:34.121Z,23.92
2019-04-01T10:58:34.149Z,23.97
2019-04-01T10:59:34.097Z,23.86
2019-04-01T11:00:34.088Z,23.87
2019-04-01T11:01:34.111Z,23.94
2019-04-01T11:02:34.098Z,23.92
2019-04-01T11:03:34.040Z,23.94
2019-04-01T11:04:34.007Z,23.86
2019-04-01T11:05:34.116Z,23.90
2019-04-01T11:06:34.022Z,23.89
2019-04-01T11:07:34.097Z,23.83
2019-04-01T11:08:33.986Z,23.79
2019-04-01T11:09:38.591Z,23.83
2019-04-01T11:10:33.948Z,23.86
2019-04-01T11:11:33.983Z,23.82
2019-04-01T11:12:33.927Z,23.76
2019-04-01T11:13:33.910Z,23.75
2019-04-01T11:14:33.881Z,23.79
2019-04-01T11:15:33.887Z,23.80
2019-04-01T11:16:33.874Z,23.76
2019-04-01T11:17:33.917Z,23.71
2019-04-01T11:18:33.854Z,23.72
2019-04-01T11:19:33.830Z,23.70
2019-04-01T11:20:33.834Z,23.72
2019-04-01T11:21:33.943Z,23.68
2019-04-01T11:22:33.822Z,23.72
2019-04-01T11:23:34.130Z,23.71
2019-04-01T11:24:33.786Z,23.79
2019-04-01T11:25:33.834Z,23.70
2019-04-01T11:26:36.526Z,23.70
2019-04-01T11:27:33.777Z,23.72
2019-04-01T11:28:34.687Z,23.70
2019-04-01T11:29:33.717Z,23.79
2019-04-01T11:30:36.714Z,23.68
2019-04-01T11:31:34.688Z,23.72
2019-04-01T11:32:33.719Z,23.71
2019-04-01T11:33:33.692Z,23.72
2019-04-01T11:34:33.744Z,23.67
2019-04-01T11:35:33.768Z,23.71
2019-04-01T11:36:33.701Z,23.68
2019-04-01T11:37:33.654Z,23.67
2019-04-01T11:38:33.653Z,23.70
2019-04-01T11:39:33.649Z,23.75
2019-04-01T11:40:33.648Z,23.71
2019-04-01T11:41:33.642Z,23.67
2019-04-01T11:42:33.624Z,23.71
2019-04-01T11:43:35.443Z,23.67
2019-04-01T11:44:33.580Z,23.75
2019-04-01T11:45:33.550Z,23.68
2019-04-01T11:46:33.572Z,23.71
2019-04-01T11:47:33.592Z,23.75
2019-04-01T11:48:33.579Z,23.68
2019-04-01T11:49:33.497Z,23.68
2019-04-01T11:50:33.535Z,23.71
2019-04-01T11:51:39.311Z,23.70
2019-04-01T11:52:34.509Z,23.70
2019-04-01T11:53:33.461Z,23.65
2019-04-01T11:54:33.447Z,23.68
2019-04-01T11:55:33.505Z,23.71
2019-04-01T11:56:33.427Z,23.68
2019-04-01T11:57:33.486Z,23.70
2019-04-01T11:58:33.416Z,23.71
2019-04-01T11:59:33.396Z,23.68
2019-04-01T12:00:33.363Z,23.71
2019-04-01T12:01:36.657Z,23.71
2019-04-01T12:02:33.343Z,23.67
2019-04-01T12:03:33.354Z,23.62
2019-04-01T12:04:33.327Z,23.68
2019-04-01T12:05:33.348Z,23.68
2019-04-01T12:06:33.322Z,23.68
2019-04-01T12:07:33.351Z,23.70
2019-04-01T12:08:33.290Z,23.58
2019-04-01T12:09:33.280Z,23.65
2019-04-01T12:10:33.277Z,23.68
2019-04-01T12:11:33.264Z,23.65
2019-04-01T12:12:33.245Z,23.71
2019-04-01T12:13:33.266Z,23.67
2019-04-01T12:14:33.243Z,23.61
2019-04-01T12:15:33.225Z,23.68
2019-04-01T12:16:33.212Z,23.64
2019-04-01T12:17:33.233Z,23.67
2019-04-01T12:18:33.187Z,23.71
2019-04-01T12:19:33.212Z,23.64
2019-04-01T12:20:33.222Z,23.67
2019-04-01T12:21:33.163Z,23.62
2019-04-01T12:22:33.147Z,23.68
2019-04-01T12:23:33.138Z,23.57
2019-04-01T12:24:33.125Z,23.68
2019-04-01T12:25:33.134Z,23.65
2019-04-01T12:26:33.113Z,23.57
2019-04-01T12:27:33.129Z,23.57
2019-04-01T12:28:36.439Z,23.57
2019-04-01T12:29:33.062Z,23.58
2019-04-01T12:30:33.040Z,23.62
2019-04-01T12:31:33.024Z,23.61
2019-04-01T12:32:33.035Z,23.53
2019-04-01T12:33:33.733Z,23.67
2019-04-01T12:34:33.049Z,23.64
2019-04-01T12:35:33.111Z,23.67
2019-04-01T12:36:32.966Z,23.61
2019-04-01T12:37:32.974Z,23.57
2019-04-01T12:38:32.967Z,23.60
2019-04-01T12:39:32.991Z,23.55
2019-04-01T12:40:32.937Z,23.60
2019-04-01T12:41:32.947Z,23.60
2019-04-01T12:42:32.945Z,23.52
2019-04-01T12:43:32.910Z,23.58
2019-04-01T12:44:32.887Z,23.62
2019-04-01T12:45:32.939Z,23.55
2019-04-01T12:46:32.874Z,23.50
2019-04-01T12:47:32.869Z,23.62
2019-04-01T12:48:32.852Z,23.50
2019-04-01T12:49:32.847Z,23.47
2019-04-01T12:50:32.817Z,23.64
2019-04-01T12:51:33.289Z,23.70
2019-04-01T12:52:32.830Z,23.62